sensor_id;sensor_type;location;lat;lon;timestamp;pressure;altitude;pressure_sealevel;temperature;humidity
70488;BME280;57976;48.174;16.370;2023-10-31T00:00:20;97724.20;;;17.19;100.00
70488;BME280;57976;48.174;16.370;2023-10-31T00:02:24;97719.77;;;17.17;100.00
70488;BME280;57976;48.174;16.370;2023-10-31T00:04:29;97725.48;;;17.15;100.00
70488;BME280;57976;48.174;16.370;2023-10-31T00:06:34;97722.10;;;17.14;100.00
70488;BME280;57976;48.174;16.370;2023-10-31T00:08:39;97725.14;;;17.11;100.00
70488;BME280;57976;48.174;16.370;2023-10-31T00:10:44;97724.28;;;17.10;100.00
70488;BME280;57976;48.174;16.370;2023-10-31T00:12:49;97727.92;;;17.08;100.00
70488;BME280;57976;48.174;16.370;2023-10-31T00:14:54;97729.48;;;17.06;100.00
70488;BME280;57976;48.174;16.370;2023-10-31T00:16:59;97732.98;;;17.05;100.00
70488;BME280;57976;48.174;16.370;2023-10-31T00:19:04;97721.30;;;17.07;100.00
70488;BME280;57976;48.174;16.370;2023-10-31T00:21:09;97715.55;;;17.06;100.00
70488;BME280;57976;48.174;16.370;2023-10-31T00:23:14;97707.84;;;17.06;100.00
70488;BME280;57976;48.174;16.370;2023-10-31T00:25:19;97705.27;;;17.08;100.00
70488;BME280;57976;48.174;16.370;2023-10-31T00:27:24;97707.09;;;17.08;100.00
70488;BME280;57976;48.174;16.370;2023-10-31T00:29:29;97701.55;;;17.07;100.00
70488;BME280;57976;48.174;16.370;2023-10-31T00:31:34;97691.55;;;17.05;100.00
70488;BME280;57976;48.174;16.370;2023-10-31T00:33:39;97695.41;;;17.06;100.00
70488;BME280;57976;48.174;16.370;2023-10-31T00:35:43;97700.89;;;17.07;100.00
70488;BME280;57976;48.174;16.370;2023-10-31T00:37:49;97705.98;;;17.05;100.00
70488;BME280;57976;48.174;16.370;2023-10-31T00:39:53;97705.55;;;17.02;100.00
70488;BME280;57976;48.174;16.370;2023-10-31T00:41:58;97712.25;;;17.01;100.00
70488;BME280;57976;48.174;16.370;2023-10-31T00:44:03;97708.86;;;17.00;100.00
70488;BME280;57976;48.174;16.370;2023-10-31T00:46:08;97702.05;;;16.99;100.00
70488;BME280;57976;48.174;16.370;2023-10-31T00:48:13;97696.29;;;16.98;100.00
70488;BME280;57976;48.174;16.370;2023-10-31T00:50:18;97697.30;;;16.99;100.00
70488;BME280;57976;48.174;16.370;2023-10-31T00:52:23;97691.30;;;16.96;100.00
70488;BME280;57976;48.174;16.370;2023-10-31T00:54:28;97690.11;;;16.95;100.00
70488;BME280;57976;48.174;16.370;2023-10-31T00:56:33;97694.52;;;16.96;100.00
70488;BME280;57976;48.174;16.370;2023-10-31T00:58:37;97695.43;;;16.92;100.00
70488;BME280;57976;48.174;16.370;2023-10-31T01:00:42;97700.21;;;16.92;100.00
70488;BME280;57976;48.174;16.370;2023-10-31T01:02:47;97698.39;;;16.92;100.00
70488;BME280;57976;48.174;16.370;2023-10-31T01:04:52;97703.81;;;16.93;100.00
70488;BME280;57976;48.174;16.370;2023-10-31T01:06:57;97712.36;;;16.94;100.00
70488;BME280;57976;48.174;16.370;2023-10-31T01:09:02;97706.17;;;16.93;100.00
70488;BME280;57976;48.174;16.370;2023-10-31T01:11:07;97701.88;;;16.93;99.95
70488;BME280;57976;48.174;16.370;2023-10-31T01:13:12;97697.52;;;16.92;100.00
70488;BME280;57976;48.174;16.370;2023-10-31T01:15:17;97687.62;;;16.92;100.00
70488;BME280;57976;48.174;16.370;2023-10-31T01:17:22;97685.35;;;16.94;99.96
70488;BME280;57976;48.174;16.370;2023-10-31T01:19:26;97665.75;;;16.95;99.96
70488;BME280;57976;48.174;16.370;2023-10-31T01:21:32;97651.08;;;16.94;99.62
70488;BME280;57976;48.174;16.370;2023-10-31T01:23:36;97642.30;;;16.93;99.09
70488;BME280;57976;48.174;16.370;2023-10-31T01:25:41;97633.46;;;16.89;99.09
70488;BME280;57976;48.174;16.370;2023-10-31T01:27:46;97630.53;;;16.87;98.93
70488;BME280;57976;48.174;16.370;2023-10-31T01:29:51;97624.63;;;16.85;98.86
70488;BME280;57976;48.174;16.370;2023-10-31T01:31:56;97617.55;;;16.83;98.74
70488;BME280;57976;48.174;16.370;2023-10-31T01:34:06;97610.46;;;16.81;98.69
70488;BME280;57976;48.174;16.370;2023-10-31T01:36:12;97613.48;;;16.79;98.77
70488;BME280;57976;48.174;16.370;2023-10-31T01:38:16;97610.43;;;16.78;98.33
70488;BME280;57976;48.174;16.370;2023-10-31T01:40:21;97610.08;;;16.77;98.80
70488;BME280;57976;48.174;16.370;2023-10-31T01:42:26;97603.08;;;16.76;98.55
70488;BME280;57976;48.174;16.370;2023-10-31T01:44:31;97593.84;;;16.75;98.05
70488;BME280;57976;48.174;16.370;2023-10-31T01:46:37;97582.97;;;16.75;98.46
70488;BME280;57976;48.174;16.370;2023-10-31T01:48:41;97582.22;;;16.76;98.61
70488;BME280;57976;48.174;16.370;2023-10-31T01:50:47;97584.10;;;16.76;98.48
70488;BME280;57976;48.174;16.370;2023-10-31T03:13:20;97519.32;;;18.20;85.36
70488;BME280;57976;48.174;16.370;2023-10-31T03:15:25;97541.34;;;18.01;86.02
70488;BME280;57976;48.174;16.370;2023-10-31T03:29:33;97609.52;;;17.18;92.19
70488;BME280;57976;48.174;16.370;2023-10-31T03:31:38;97600.25;;;17.14;93.13
70488;BME280;57976;48.174;16.370;2023-10-31T03:33:43;97597.77;;;17.09;93.85
70488;BME280;57976;48.174;16.370;2023-10-31T03:35:47;97592.67;;;17.02;94.44
70488;BME280;57976;48.174;16.370;2023-10-31T03:37:52;97601.30;;;16.93;95.21
70488;BME280;57976;48.174;16.370;2023-10-31T03:39:57;97598.52;;;16.88;95.76
70488;BME280;57976;48.174;16.370;2023-10-31T03:42:02;97603.59;;;16.85;95.88
70488;BME280;57976;48.174;16.370;2023-10-31T03:44:07;97606.86;;;16.81;96.20
70488;BME280;57976;48.174;16.370;2023-10-31T03:46:12;97615.02;;;16.77;96.53
70488;BME280;57976;48.174;16.370;2023-10-31T03:48:17;97608.80;;;16.73;96.25
70488;BME280;57976;48.174;16.370;2023-10-31T03:50:22;97612.36;;;16.66;96.31
70488;BME280;57976;48.174;16.370;2023-10-31T03:52:27;97615.09;;;16.60;96.21
70488;BME280;57976;48.174;16.370;2023-10-31T03:54:32;97619.29;;;16.54;96.35
70488;BME280;57976;48.174;16.370;2023-10-31T03:56:41;97637.59;;;16.48;96.48
70488;BME280;57976;48.174;16.370;2023-10-31T03:58:46;97629.08;;;16.42;96.44
70488;BME280;57976;48.174;16.370;2023-10-31T04:00:51;97648.35;;;16.37;96.93
70488;BME280;57976;48.174;16.370;2023-10-31T04:02:56;97650.38;;;16.33;96.89
70488;BME280;57976;48.174;16.370;2023-10-31T04:05:01;97661.96;;;16.29;96.89
70488;BME280;57976;48.174;16.370;2023-10-31T04:07:06;97655.65;;;16.24;97.46
70488;BME280;57976;48.174;16.370;2023-10-31T04:09:10;97642.77;;;16.19;97.35
70488;BME280;57976;48.174;16.370;2023-10-31T04:11:15;97656.66;;;16.15;97.73
70488;BME280;57976;48.174;16.370;2023-10-31T04:13:20;97659.41;;;16.12;97.83
70488;BME280;57976;48.174;16.370;2023-10-31T04:15:25;97664.27;;;16.07;97.80
70488;BME280;57976;48.174;16.370;2023-10-31T04:17:29;97670.05;;;16.03;98.42
70488;BME280;57976;48.174;16.370;2023-10-31T04:19:34;97676.08;;;16.00;98.40
70488;BME280;57976;48.174;16.370;2023-10-31T04:21:40;97687.10;;;15.98;98.67
70488;BME280;57976;48.174;16.370;2023-10-31T04:23:45;97701.40;;;15.96;98.71
70488;BME280;57976;48.174;16.370;2023-10-31T04:25:51;97700.02;;;15.94;98.93
70488;BME280;57976;48.174;16.370;2023-10-31T04:27:56;97700.99;;;15.93;99.51
70488;BME280;57976;48.174;16.370;2023-10-31T04:30:00;97702.81;;;15.91;99.45
70488;BME280;57976;48.174;16.370;2023-10-31T04:32:06;97703.42;;;15.89;99.87
70488;BME280;57976;48.174;16.370;2023-10-31T04:34:11;97706.90;;;15.90;100.00
70488;BME280;57976;48.174;16.370;2023-10-31T04:36:16;97708.08;;;15.89;99.99
70488;BME280;57976;48.174;16.370;2023-10-31T04:38:21;97702.77;;;15.87;100.00
70488;BME280;57976;48.174;16.370;2023-10-31T04:40:25;97707.40;;;15.85;100.00
70488;BME280;57976;48.174;16.370;2023-10-31T04:42:30;97701.25;;;15.82;100.00
70488;BME280;57976;48.174;16.370;2023-10-31T04:44:36;97702.90;;;15.80;100.00
70488;BME280;57976;48.174;16.370;2023-10-31T04:46:41;97707.90;;;15.79;100.00
70488;BME280;57976;48.174;16.370;2023-10-31T04:48:46;97709.14;;;15.77;100.00
70488;BME280;57976;48.174;16.370;2023-10-31T04:50:51;97704.05;;;15.76;100.00
70488;BME280;57976;48.174;16.370;2023-10-31T04:52:55;97704.86;;;15.75;100.00
70488;BME280;57976;48.174;16.370;2023-10-31T04:55:00;97711.64;;;15.75;100.00
70488;BME280;57976;48.174;16.370;2023-10-31T04:57:05;97716.13;;;15.74;100.00
70488;BME280;57976;48.174;16.370;2023-10-31T04:59:10;97724.52;;;15.74;100.00
70488;BME280;57976;48.174;16.370;2023-10-31T05:01:15;97725.48;;;15.75;100.00
70488;BME280;57976;48.174;16.370;2023-10-31T05:03:20;97729.94;;;15.75;100.00
70488;BME280;57976;48.174;16.370;2023-10-31T05:05:25;97728.92;;;15.75;100.00
70488;BME280;57976;48.174;16.370;2023-10-31T05:07:30;97722.00;;;15.75;100.00
70488;BME280;57976;48.174;16.370;2023-10-31T05:09:35;97719.63;;;15.75;100.00
70488;BME280;57976;48.174;16.370;2023-10-31T05:11:40;97718.23;;;15.73;100.00
70488;BME280;57976;48.174;16.370;2023-10-31T05:13:45;97724.65;;;15.71;100.00
70488;BME280;57976;48.174;16.370;2023-10-31T05:15:50;97731.89;;;15.70;100.00
70488;BME280;57976;48.174;16.370;2023-10-31T05:17:55;97743.04;;;15.69;100.00
70488;BME280;57976;48.174;16.370;2023-10-31T05:20:00;97746.23;;;15.66;100.00
70488;BME280;57976;48.174;16.370;2023-10-31T05:22:05;97749.30;;;15.64;100.00
70488;BME280;57976;48.174;16.370;2023-10-31T05:24:10;97757.67;;;15.62;100.00
70488;BME280;57976;48.174;16.370;2023-10-31T05:26:15;97772.06;;;15.62;100.00
70488;BME280;57976;48.174;16.370;2023-10-31T05:28:20;97775.61;;;15.61;100.00
70488;BME280;57976;48.174;16.370;2023-10-31T05:30:27;97785.71;;;15.60;100.00
70488;BME280;57976;48.174;16.370;2023-10-31T05:32:32;97786.25;;;15.58;100.00
70488;BME280;57976;48.174;16.370;2023-10-31T05:47:13;97817.25;;;15.32;100.00
70488;BME280;57976;48.174;16.370;2023-10-31T05:49:18;97816.06;;;15.25;100.00
70488;BME280;57976;48.174;16.370;2023-10-31T05:51:23;97818.42;;;15.21;100.00
70488;BME280;57976;48.174;16.370;2023-10-31T05:53:27;97820.50;;;15.17;100.00
70488;BME280;57976;48.174;16.370;2023-10-31T05:55:32;97826.20;;;15.13;100.00
70488;BME280;57976;48.174;16.370;2023-10-31T05:57:37;97826.98;;;15.09;100.00
70488;BME280;57976;48.174;16.370;2023-10-31T05:59:42;97833.48;;;15.07;100.00
70488;BME280;57976;48.174;16.370;2023-10-31T06:01:46;97838.99;;;15.05;100.00
70488;BME280;57976;48.174;16.370;2023-10-31T06:03:51;97841.64;;;15.03;100.00
70488;BME280;57976;48.174;16.370;2023-10-31T06:05:56;97855.41;;;15.02;100.00
70488;BME280;57976;48.174;16.370;2023-10-31T06:08:01;97855.24;;;15.00;100.00
70488;BME280;57976;48.174;16.370;2023-10-31T06:10:07;97847.73;;;14.99;100.00
70488;BME280;57976;48.174;16.370;2023-10-31T06:12:12;97855.98;;;14.97;100.00
70488;BME280;57976;48.174;16.370;2023-10-31T06:14:17;97864.14;;;14.96;100.00
70488;BME280;57976;48.174;16.370;2023-10-31T06:16:22;97863.49;;;14.94;100.00
70488;BME280;57976;48.174;16.370;2023-10-31T06:18:27;97864.98;;;14.91;100.00
70488;BME280;57976;48.174;16.370;2023-10-31T06:20:31;97874.09;;;14.88;100.00
70488;BME280;57976;48.174;16.370;2023-10-31T06:22:36;97881.21;;;14.86;100.00
70488;BME280;57976;48.174;16.370;2023-10-31T06:24:41;97880.95;;;14.85;100.00
70488;BME280;57976;48.174;16.370;2023-10-31T06:26:46;97876.39;;;14.84;100.00
70488;BME280;57976;48.174;16.370;2023-10-31T06:28:51;97874.23;;;14.83;100.00
70488;BME280;57976;48.174;16.370;2023-10-31T06:31:15;97890.81;;;14.84;100.00
70488;BME280;57976;48.174;16.370;2023-10-31T06:33:20;97902.34;;;14.84;100.00
70488;BME280;57976;48.174;16.370;2023-10-31T06:35:25;97911.03;;;14.85;100.00
70488;BME280;57976;48.174;16.370;2023-10-31T06:37:30;97914.09;;;14.85;100.00
70488;BME280;57976;48.174;16.370;2023-10-31T06:39:35;97911.30;;;14.84;100.00
70488;BME280;57976;48.174;16.370;2023-10-31T06:41:39;97910.59;;;14.82;100.00
70488;BME280;57976;48.174;16.370;2023-10-31T06:43:44;97920.67;;;14.81;100.00
70488;BME280;57976;48.174;16.370;2023-10-31T06:45:49;97918.55;;;14.77;100.00
70488;BME280;57976;48.174;16.370;2023-10-31T06:47:54;97907.46;;;14.75;100.00
70488;BME280;57976;48.174;16.370;2023-10-31T06:49:59;97913.77;;;14.74;100.00
70488;BME280;57976;48.174;16.370;2023-10-31T06:52:04;97914.77;;;14.73;100.00
70488;BME280;57976;48.174;16.370;2023-10-31T06:54:09;97910.42;;;14.70;100.00
70488;BME280;57976;48.174;16.370;2023-10-31T06:56:14;97906.04;;;14.70;100.00
70488;BME280;57976;48.174;16.370;2023-10-31T06:58:18;97901.57;;;14.68;100.00
70488;BME280;57976;48.174;16.370;2023-10-31T07:00:23;97897.08;;;14.67;100.00
70488;BME280;57976;48.174;16.370;2023-10-31T07:02:28;97893.91;;;14.66;100.00
70488;BME280;57976;48.174;16.370;2023-10-31T07:04:33;97891.86;;;14.65;100.00
70488;BME280;57976;48.174;16.370;2023-10-31T07:06:38;97892.77;;;14.64;100.00
70488;BME280;57976;48.174;16.370;2023-10-31T07:08:43;97893.63;;;14.63;99.97
70488;BME280;57976;48.174;16.370;2023-10-31T07:10:47;97896.73;;;14.63;100.00
70488;BME280;57976;48.174;16.370;2023-10-31T07:12:52;97891.31;;;14.61;100.00
70488;BME280;57976;48.174;16.370;2023-10-31T07:14:57;97900.48;;;14.61;99.91
70488;BME280;57976;48.174;16.370;2023-10-31T07:17:02;97891.46;;;14.58;99.36
70488;BME280;57976;48.174;16.370;2023-10-31T07:19:07;97894.77;;;14.57;99.74
70488;BME280;57976;48.174;16.370;2023-10-31T07:21:12;97912.40;;;14.56;99.80
70488;BME280;57976;48.174;16.370;2023-10-31T07:23:16;97914.60;;;14.56;99.11
70488;BME280;57976;48.174;16.370;2023-10-31T07:25:22;97929.34;;;14.54;98.91
70488;BME280;57976;48.174;16.370;2023-10-31T07:27:27;97927.50;;;14.52;98.66
70488;BME280;57976;48.174;16.370;2023-10-31T07:29:32;97937.55;;;14.50;99.00
70488;BME280;57976;48.174;16.370;2023-10-31T07:31:36;97944.73;;;14.50;99.20
70488;BME280;57976;48.174;16.370;2023-10-31T07:33:41;97937.88;;;14.48;99.09
70488;BME280;57976;48.174;16.370;2023-10-31T07:35:47;97940.81;;;14.46;99.04
70488;BME280;57976;48.174;16.370;2023-10-31T07:37:52;97952.17;;;14.45;98.98
70488;BME280;57976;48.174;16.370;2023-10-31T07:39:57;97960.67;;;14.43;98.68
70488;BME280;57976;48.174;16.370;2023-10-31T07:42:02;97967.48;;;14.42;98.68
70488;BME280;57976;48.174;16.370;2023-10-31T07:44:07;97965.67;;;14.44;98.71
70488;BME280;57976;48.174;16.370;2023-10-31T07:46:12;97962.06;;;14.43;98.84
70488;BME280;57976;48.174;16.370;2023-10-31T07:48:16;97956.39;;;14.43;98.43
70488;BME280;57976;48.174;16.370;2023-10-31T07:50:21;97961.42;;;14.43;98.60
70488;BME280;57976;48.174;16.370;2023-10-31T07:52:26;97960.73;;;14.43;98.74
70488;BME280;57976;48.174;16.370;2023-10-31T07:54:30;97970.16;;;14.42;98.67
70488;BME280;57976;48.174;16.370;2023-10-31T07:56:35;97966.45;;;14.41;98.85
70488;BME280;57976;48.174;16.370;2023-10-31T07:58:40;97979.68;;;14.40;98.85
70488;BME280;57976;48.174;16.370;2023-10-31T08:00:45;97974.20;;;14.38;99.02
70488;BME280;57976;48.174;16.370;2023-10-31T08:02:49;97959.77;;;14.37;99.02
70488;BME280;57976;48.174;16.370;2023-10-31T08:04:55;97954.01;;;14.38;98.20
70488;BME280;57976;48.174;16.370;2023-10-31T08:07:00;97958.46;;;14.40;98.55
70488;BME280;57976;48.174;16.370;2023-10-31T08:09:04;97963.77;;;14.41;98.28
70488;BME280;57976;48.174;16.370;2023-10-31T08:11:13;97963.23;;;14.43;97.92
70488;BME280;57976;48.174;16.370;2023-10-31T08:13:17;97952.23;;;14.46;97.10
70488;BME280;57976;48.174;16.370;2023-10-31T08:15:22;97941.25;;;14.46;96.72
70488;BME280;57976;48.174;16.370;2023-10-31T08:17:27;97940.23;;;14.47;96.34
70488;BME280;57976;48.174;16.370;2023-10-31T08:19:32;97934.66;;;14.48;96.37
70488;BME280;57976;48.174;16.370;2023-10-31T08:21:36;97939.60;;;14.50;95.63
70488;BME280;57976;48.174;16.370;2023-10-31T08:23:41;97930.54;;;14.50;95.49
70488;BME280;57976;48.174;16.370;2023-10-31T08:25:46;97927.51;;;14.51;95.15
70488;BME280;57976;48.174;16.370;2023-10-31T08:27:51;97918.67;;;14.54;94.98
70488;BME280;57976;48.174;16.370;2023-10-31T08:29:55;97927.36;;;14.55;94.54
70488;BME280;57976;48.174;16.370;2023-10-31T08:32:00;97927.90;;;14.57;94.27
70488;BME280;57976;48.174;16.370;2023-10-31T08:34:05;97938.21;;;14.59;93.70
70488;BME280;57976;48.174;16.370;2023-10-31T08:36:10;97954.88;;;14.58;93.03
70488;BME280;57976;48.174;16.370;2023-10-31T08:38:15;97973.11;;;14.58;92.78
70488;BME280;57976;48.174;16.370;2023-10-31T08:40:32;97986.23;;;14.59;92.16
70488;BME280;57976;48.174;16.370;2023-10-31T08:42:37;97991.38;;;14.59;91.42
70488;BME280;57976;48.174;16.370;2023-10-31T08:44:42;97990.05;;;14.59;91.66
70488;BME280;57976;48.174;16.370;2023-10-31T08:46:47;97989.98;;;14.58;92.28
70488;BME280;57976;48.174;16.370;2023-10-31T08:48:52;97989.34;;;14.59;91.82
70488;BME280;57976;48.174;16.370;2023-10-31T08:50:57;97992.40;;;14.59;91.63
70488;BME280;57976;48.174;16.370;2023-10-31T08:53:01;97978.41;;;14.59;91.64
70488;BME280;57976;48.174;16.370;2023-10-31T08:55:07;97992.30;;;14.60;90.82
70488;BME280;57976;48.174;16.370;2023-10-31T08:57:22;97979.27;;;14.60;90.20
70488;BME280;57976;48.174;16.370;2023-10-31T08:59:30;97980.23;;;14.59;89.83
70488;BME280;57976;48.174;16.370;2023-10-31T09:01:35;97978.69;;;14.59;89.38
70488;BME280;57976;48.174;16.370;2023-10-31T09:03:39;97987.48;;;14.60;89.80
70488;BME280;57976;48.174;16.370;2023-10-31T09:05:44;97982.54;;;14.60;89.66
70488;BME280;57976;48.174;16.370;2023-10-31T09:07:49;97989.78;;;14.60;88.96
70488;BME280;57976;48.174;16.370;2023-10-31T09:09:54;97992.45;;;14.59;89.25
70488;BME280;57976;48.174;16.370;2023-10-31T09:11:58;97990.61;;;14.55;88.73
70488;BME280;57976;48.174;16.370;2023-10-31T09:14:03;97987.88;;;14.54;89.05
70488;BME280;57976;48.174;16.370;2023-10-31T09:16:09;97983.89;;;14.52;89.24
70488;BME280;57976;48.174;16.370;2023-10-31T09:18:20;97982.58;;;14.50;89.74
70488;BME280;57976;48.174;16.370;2023-10-31T09:20:30;97983.05;;;14.47;89.97
70488;BME280;57976;48.174;16.370;2023-10-31T09:22:35;98001.10;;;14.45;89.82
70488;BME280;57976;48.174;16.370;2023-10-31T09:24:40;97975.83;;;14.41;90.55
70488;BME280;57976;48.174;16.370;2023-10-31T09:26:48;97991.52;;;14.38;90.93
70488;BME280;57976;48.174;16.370;2023-10-31T09:28:52;97980.30;;;14.36;90.68
70488;BME280;57976;48.174;16.370;2023-10-31T09:30:57;97975.84;;;14.35;91.23
70488;BME280;57976;48.174;16.370;2023-10-31T09:33:02;97971.65;;;14.33;91.27
70488;BME280;57976;48.174;16.370;2023-10-31T09:35:08;97973.52;;;14.32;91.61
70488;BME280;57976;48.174;16.370;2023-10-31T09:37:13;97974.42;;;14.31;91.23
70488;BME280;57976;48.174;16.370;2023-10-31T09:39:17;97967.98;;;14.31;91.33
70488;BME280;57976;48.174;16.370;2023-10-31T09:41:22;97974.67;;;14.30;91.68
70488;BME280;57976;48.174;16.370;2023-10-31T09:43:27;97972.61;;;14.28;92.07
70488;BME280;57976;48.174;16.370;2023-10-31T09:45:32;97975.48;;;14.26;92.34
70488;BME280;57976;48.174;16.370;2023-10-31T09:47:37;97976.75;;;14.23;92.70
70488;BME280;57976;48.174;16.370;2023-10-31T09:49:42;97978.00;;;14.18;94.17
70488;BME280;57976;48.174;16.370;2023-10-31T09:51:48;97986.15;;;14.13;95.60
70488;BME280;57976;48.174;16.370;2023-10-31T09:53:55;97986.13;;;14.02;96.84
70488;BME280;57976;48.174;16.370;2023-10-31T09:56:02;98001.30;;;13.93;98.37
70488;BME280;57976;48.174;16.370;2023-10-31T09:58:06;98007.55;;;13.84;99.58
70488;BME280;57976;48.174;16.370;2023-10-31T10:00:12;98012.89;;;13.77;99.73
70488;BME280;57976;48.174;16.370;2023-10-31T10:02:17;98006.98;;;13.70;100.00
70488;BME280;57976;48.174;16.370;2023-10-31T10:04:25;98000.91;;;13.64;100.00
70488;BME280;57976;48.174;16.370;2023-10-31T10:06:31;97984.96;;;13.58;100.00
70488;BME280;57976;48.174;16.370;2023-10-31T10:08:39;97988.66;;;13.53;100.00
70488;BME280;57976;48.174;16.370;2023-10-31T10:10:44;97993.44;;;13.50;100.00
70488;BME280;57976;48.174;16.370;2023-10-31T10:12:49;98003.06;;;13.44;100.00
70488;BME280;57976;48.174;16.370;2023-10-31T10:14:56;98014.59;;;13.36;100.00
70488;BME280;57976;48.174;16.370;2023-10-31T10:17:01;98022.05;;;13.28;100.00
70488;BME280;57976;48.174;16.370;2023-10-31T10:19:19;98030.05;;;13.18;100.00
70488;BME280;57976;48.174;16.370;2023-10-31T10:21:24;98042.73;;;13.10;100.00
70488;BME280;57976;48.174;16.370;2023-10-31T10:23:29;98048.98;;;13.03;100.00
70488;BME280;57976;48.174;16.370;2023-10-31T10:25:37;98049.23;;;12.95;100.00
70488;BME280;57976;48.174;16.370;2023-10-31T10:27:47;98046.71;;;12.87;100.00
70488;BME280;57976;48.174;16.370;2023-10-31T10:29:54;98046.38;;;12.81;100.00
70488;BME280;57976;48.174;16.370;2023-10-31T10:31:59;98051.02;;;12.74;100.00
70488;BME280;57976;48.174;16.370;2023-10-31T10:34:05;98047.97;;;12.69;100.00
70488;BME280;57976;48.174;16.370;2023-10-31T10:36:12;98047.88;;;12.64;100.00
70488;BME280;57976;48.174;16.370;2023-10-31T10:38:18;98045.87;;;12.57;100.00
70488;BME280;57976;48.174;16.370;2023-10-31T10:40:24;98047.22;;;12.51;100.00
70488;BME280;57976;48.174;16.370;2023-10-31T10:42:33;98047.63;;;12.44;100.00
70488;BME280;57976;48.174;16.370;2023-10-31T10:44:38;98036.73;;;12.35;100.00
70488;BME280;57976;48.174;16.370;2023-10-31T10:46:48;98038.12;;;12.29;100.00
70488;BME280;57976;48.174;16.370;2023-10-31T10:48:57;98025.68;;;12.20;100.00
70488;BME280;57976;48.174;16.370;2023-10-31T10:51:07;98024.17;;;12.12;100.00
70488;BME280;57976;48.174;16.370;2023-10-31T10:53:23;98027.36;;;12.05;100.00
70488;BME280;57976;48.174;16.370;2023-10-31T10:55:29;98022.33;;;11.97;100.00
70488;BME280;57976;48.174;16.370;2023-10-31T10:57:38;98020.98;;;11.90;100.00
70488;BME280;57976;48.174;16.370;2023-10-31T10:59:49;98009.05;;;11.82;100.00
70488;BME280;57976;48.174;16.370;2023-10-31T11:01:56;98021.85;;;11.76;100.00
70488;BME280;57976;48.174;16.370;2023-10-31T11:04:03;98021.85;;;11.70;100.00
70488;BME280;57976;48.174;16.370;2023-10-31T11:06:10;98046.73;;;11.66;100.00
70488;BME280;57976;48.174;16.370;2023-10-31T11:08:15;98060.44;;;11.61;100.00
70488;BME280;57976;48.174;16.370;2023-10-31T11:10:20;98071.57;;;11.57;100.00
70488;BME280;57976;48.174;16.370;2023-10-31T11:12:26;98087.86;;;11.53;100.00
70488;BME280;57976;48.174;16.370;2023-10-31T11:14:32;98096.77;;;11.51;100.00
70488;BME280;57976;48.174;16.370;2023-10-31T11:16:43;98111.50;;;11.49;100.00
70488;BME280;57976;48.174;16.370;2023-10-31T11:18:49;98127.86;;;11.47;100.00
70488;BME280;57976;48.174;16.370;2023-10-31T11:20:54;98141.86;;;11.47;100.00
70488;BME280;57976;48.174;16.370;2023-10-31T11:22:59;98173.27;;;11.46;100.00
70488;BME280;57976;48.174;16.370;2023-10-31T11:25:04;98191.57;;;11.46;100.00
70488;BME280;57976;48.174;16.370;2023-10-31T11:27:15;98207.04;;;11.46;100.00
70488;BME280;57976;48.174;16.370;2023-10-31T11:29:21;98224.21;;;11.46;100.00
70488;BME280;57976;48.174;16.370;2023-10-31T11:31:28;98222.67;;;11.46;100.00
70488;BME280;57976;48.174;16.370;2023-10-31T11:33:34;98228.90;;;11.46;100.00
70488;BME280;57976;48.174;16.370;2023-10-31T11:35:43;98234.86;;;11.45;100.00
70488;BME280;57976;48.174;16.370;2023-10-31T11:37:50;98238.98;;;11.44;100.00
70488;BME280;57976;48.174;16.370;2023-10-31T11:40:19;98235.77;;;11.43;100.00
70488;BME280;57976;48.174;16.370;2023-10-31T11:42:26;98220.14;;;11.43;100.00
70488;BME280;57976;48.174;16.370;2023-10-31T11:44:31;98206.01;;;11.41;100.00
70488;BME280;57976;48.174;16.370;2023-10-31T11:46:36;98190.14;;;11.39;100.00
70488;BME280;57976;48.174;16.370;2023-10-31T11:48:48;98166.44;;;11.38;100.00
70488;BME280;57976;48.174;16.370;2023-10-31T11:50:53;98148.14;;;11.38;100.00
70488;BME280;57976;48.174;16.370;2023-10-31T11:53:02;98119.52;;;11.38;100.00
70488;BME280;57976;48.174;16.370;2023-10-31T11:55:10;98124.36;;;11.38;100.00
70488;BME280;57976;48.174;16.370;2023-10-31T11:57:28;98148.74;;;11.39;100.00
70488;BME280;57976;48.174;16.370;2023-10-31T11:59:38;98147.17;;;11.41;100.00
70488;BME280;57976;48.174;16.370;2023-10-31T12:01:47;98168.55;;;11.43;100.00
70488;BME280;57976;48.174;16.370;2023-10-31T12:03:52;98181.79;;;11.45;100.00
70488;BME280;57976;48.174;16.370;2023-10-31T12:05:58;98193.05;;;11.46;100.00
70488;BME280;57976;48.174;16.370;2023-10-31T12:08:03;98203.05;;;11.44;100.00
70488;BME280;57976;48.174;16.370;2023-10-31T12:10:09;98200.66;;;11.42;100.00
70488;BME280;57976;48.174;16.370;2023-10-31T12:12:14;98178.30;;;11.38;100.00
70488;BME280;57976;48.174;16.370;2023-10-31T12:14:21;98159.55;;;11.36;100.00
70488;BME280;57976;48.174;16.370;2023-10-31T12:16:27;98150.25;;;11.37;100.00
70488;BME280;57976;48.174;16.370;2023-10-31T12:18:33;98136.80;;;11.39;100.00
70488;BME280;57976;48.174;16.370;2023-10-31T12:20:48;98141.27;;;11.41;100.00
70488;BME280;57976;48.174;16.370;2023-10-31T12:23:04;98131.07;;;11.43;100.00
70488;BME280;57976;48.174;16.370;2023-10-31T12:25:10;98117.23;;;11.42;100.00
70488;BME280;57976;48.174;16.370;2023-10-31T12:27:15;98116.95;;;11.36;100.00
70488;BME280;57976;48.174;16.370;2023-10-31T12:29:21;98120.77;;;11.33;100.00
70488;BME280;57976;48.174;16.370;2023-10-31T12:31:26;98137.77;;;11.32;100.00
70488;BME280;57976;48.174;16.370;2023-10-31T12:33:31;98141.53;;;11.28;100.00
70488;BME280;57976;48.174;16.370;2023-10-31T12:35:36;98129.03;;;11.25;100.00
70488;BME280;57976;48.174;16.370;2023-10-31T12:37:41;98103.55;;;11.22;100.00